sensor_id;sensor_type;location;lat;lon;timestamp;temperature;humidity
480;DHT22;226;48.606;9.096;2023-07-28T10:48:42;24.20;54.80
480;DHT22;226;48.606;9.096;2023-07-28T10:51:11;24.30;55.80
480;DHT22;226;48.606;9.096;2023-07-28T10:53:40;24.70;56.70
480;DHT22;226;48.606;9.096;2023-07-28T10:58:38;24.30;55.10
480;DHT22;226;48.606;9.096;2023-07-28T11:01:06;24.40;56.80
480;DHT22;226;48.606;9.096;2023-07-28T11:03:34;24.60;55.50
480;DHT22;226;48.606;9.096;2023-07-28T11:08:33;24.80;52.80
480;DHT22;226;48.606;9.096;2023-07-28T11:11:04;24.90;54.90
480;DHT22;226;48.606;9.096;2023-07-28T11:13:33;25.00;54.50
480;DHT22;226;48.606;9.096;2023-07-28T11:16:07;25.00;54.40
480;DHT22;226;48.606;9.096;2023-07-28T11:18:37;25.00;52.00
480;DHT22;226;48.606;9.096;2023-07-28T11:21:07;25.00;51.30
480;DHT22;226;48.606;9.096;2023-07-28T11:23:35;25.10;52.60
480;DHT22;226;48.606;9.096;2023-07-28T11:26:05;25.10;52.90
480;DHT22;226;48.606;9.096;2023-07-28T11:28:38;25.40;51.50
480;DHT22;226;48.606;9.096;2023-07-28T11:33:37;25.30;46.90
480;DHT22;226;48.606;9.096;2023-07-28T11:36:06;25.40;52.20
480;DHT22;226;48.606;9.096;2023-07-28T11:51:00;23.60;67.80
480;DHT22;226;48.606;9.096;2023-07-28T12:31:50;23.30;57.30
480;DHT22;226;48.606;9.096;2023-07-28T12:34:28;23.70;62.00
480;DHT22;226;48.606;9.096;2023-07-28T12:36:56;24.00;64.10
480;DHT22;226;48.606;9.096;2023-07-28T12:39:26;23.70;54.80
480;DHT22;226;48.606;9.096;2023-07-28T12:41:58;24.50;56.00
480;DHT22;226;48.606;9.096;2023-07-28T12:44:29;24.70;58.10
480;DHT22;226;48.606;9.096;2023-07-28T12:47:01;24.70;55.60
480;DHT22;226;48.606;9.096;2023-07-28T12:49:33;24.50;51.90
480;DHT22;226;48.606;9.096;2023-07-28T12:52:05;24.60;51.90
480;DHT22;226;48.606;9.096;2023-07-28T12:54:46;24.50;53.10
480;DHT22;226;48.606;9.096;2023-07-28T12:57:14;24.40;57.50
480;DHT22;226;48.606;9.096;2023-07-28T12:59:43;24.30;59.60
480;DHT22;226;48.606;9.096;2023-07-28T13:02:13;24.20;57.10
480;DHT22;226;48.606;9.096;2023-07-28T13:04:42;24.10;58.70
480;DHT22;226;48.606;9.096;2023-07-28T13:07:10;24.00;63.30
480;DHT22;226;48.606;9.096;2023-07-28T13:09:41;24.20;66.30
480;DHT22;226;48.606;9.096;2023-07-28T13:12:11;24.30;65.00
480;DHT22;226;48.606;9.096;2023-07-28T13:14:42;24.20;66.90
480;DHT22;226;48.606;9.096;2023-07-28T13:17:10;24.20;65.20
480;DHT22;226;48.606;9.096;2023-07-28T13:19:39;24.10;63.00
480;DHT22;226;48.606;9.096;2023-07-28T13:22:07;24.10;58.30
480;DHT22;226;48.606;9.096;2023-07-28T13:24:37;23.80;62.80
480;DHT22;226;48.606;9.096;2023-07-28T13:27:06;23.80;65.00
480;DHT22;226;48.606;9.096;2023-07-28T13:29:35;23.60;65.60
480;DHT22;226;48.606;9.096;2023-07-28T13:32:04;23.50;65.40
480;DHT22;226;48.606;9.096;2023-07-28T13:34:42;23.60;68.60
480;DHT22;226;48.606;9.096;2023-07-28T13:37:10;23.50;71.20
480;DHT22;226;48.606;9.096;2023-07-28T13:39:38;23.30;73.20
480;DHT22;226;48.606;9.096;2023-07-28T13:42:07;23.80;75.90
480;DHT22;226;48.606;9.096;2023-07-28T13:44:36;23.30;66.40
480;DHT22;226;48.606;9.096;2023-07-28T13:47:13;23.10;69.40
480;DHT22;226;48.606;9.096;2023-07-28T13:49:41;23.20;70.60
480;DHT22;226;48.606;9.096;2023-07-28T13:52:12;22.90;72.70
480;DHT22;226;48.606;9.096;2023-07-28T13:54:47;22.90;77.70
480;DHT22;226;48.606;9.096;2023-07-28T13:57:18;22.70;82.20
480;DHT22;226;48.606;9.096;2023-07-28T13:59:48;22.60;81.10
480;DHT22;226;48.606;9.096;2023-07-28T14:02:17;22.70;88.00
480;DHT22;226;48.606;9.096;2023-07-28T14:04:45;22.70;90.90
480;DHT22;226;48.606;9.096;2023-07-28T14:07:14;22.50;90.80
480;DHT22;226;48.606;9.096;2023-07-28T14:09:42;22.60;90.40
480;DHT22;226;48.606;9.096;2023-07-28T14:12:10;22.50;87.50
480;DHT22;226;48.606;9.096;2023-07-28T14:14:38;22.50;86.10
480;DHT22;226;48.606;9.096;2023-07-28T14:17:08;22.50;79.50
480;DHT22;226;48.606;9.096;2023-07-28T14:19:38;22.40;81.10
480;DHT22;226;48.606;9.096;2023-07-28T14:22:07;22.50;85.60
480;DHT22;226;48.606;9.096;2023-07-28T14:24:35;22.40;86.90
480;DHT22;226;48.606;9.096;2023-07-28T14:27:04;22.50;83.60
480;DHT22;226;48.606;9.096;2023-07-28T14:29:32;22.60;81.70
480;DHT22;226;48.606;9.096;2023-07-28T14:32:00;22.80;83.70
480;DHT22;226;48.606;9.096;2023-07-28T14:34:30;22.90;82.90
480;DHT22;226;48.606;9.096;2023-07-28T14:37:03;22.90;87.90
480;DHT22;226;48.606;9.096;2023-07-28T14:39:32;23.00;81.80
480;DHT22;226;48.606;9.096;2023-07-28T14:42:00;23.00;79.80
480;DHT22;226;48.606;9.096;2023-07-28T14:44:29;22.90;78.90
480;DHT22;226;48.606;9.096;2023-07-28T14:46:57;22.80;82.90
480;DHT22;226;48.606;9.096;2023-07-28T14:49:25;22.70;80.00
480;DHT22;226;48.606;9.096;2023-07-28T14:51:56;22.70;79.70
480;DHT22;226;48.606;9.096;2023-07-28T14:54:24;22.70;80.40
480;DHT22;226;48.606;9.096;2023-07-28T14:56:52;23.00;80.30
480;DHT22;226;48.606;9.096;2023-07-28T14:59:20;23.30;81.30
480;DHT22;226;48.606;9.096;2023-07-28T15:01:48;23.90;71.40
480;DHT22;226;48.606;9.096;2023-07-28T15:04:16;24.00;63.40
480;DHT22;226;48.606;9.096;2023-07-28T15:06:45;24.00;58.50
480;DHT22;226;48.606;9.096;2023-07-28T15:09:14;23.90;57.80
480;DHT22;226;48.606;9.096;2023-07-28T15:11:45;23.70;59.20
480;DHT22;226;48.606;9.096;2023-07-28T15:14:13;23.30;60.30
480;DHT22;226;48.606;9.096;2023-07-28T15:16:42;23.10;60.60
480;DHT22;226;48.606;9.096;2023-07-28T15:19:10;23.10;61.00
480;DHT22;226;48.606;9.096;2023-07-28T15:21:38;23.10;60.90
480;DHT22;226;48.606;9.096;2023-07-28T15:24:06;23.10;64.30
480;DHT22;226;48.606;9.096;2023-07-28T15:26:37;23.10;62.30
480;DHT22;226;48.606;9.096;2023-07-28T15:29:05;22.90;61.30
480;DHT22;226;48.606;9.096;2023-07-28T15:31:33;22.80;63.50
480;DHT22;226;48.606;9.096;2023-07-28T15:34:02;22.80;66.10
480;DHT22;226;48.606;9.096;2023-07-28T15:36:30;22.60;65.40
480;DHT22;226;48.606;9.096;2023-07-28T15:38:58;22.40;64.00
480;DHT22;226;48.606;9.096;2023-07-28T15:41:26;22.30;64.80
480;DHT22;226;48.606;9.096;2023-07-28T15:43:56;22.40;67.10
480;DHT22;226;48.606;9.096;2023-07-28T15:46:24;22.50;68.10
480;DHT22;226;48.606;9.096;2023-07-28T15:48:52;22.40;70.30
480;DHT22;226;48.606;9.096;2023-07-28T15:51:20;22.30;69.10
480;DHT22;226;48.606;9.096;2023-07-28T15:53:49;22.20;67.90
480;DHT22;226;48.606;9.096;2023-07-28T15:56:19;22.00;67.60
480;DHT22;226;48.606;9.096;2023-07-28T15:58:47;22.20;72.30
480;DHT22;226;48.606;9.096;2023-07-28T16:01:16;22.20;74.40
480;DHT22;226;48.606;9.096;2023-07-28T16:03:44;22.00;70.10
480;DHT22;226;48.606;9.096;2023-07-28T16:06:13;22.00;75.30
480;DHT22;226;48.606;9.096;2023-07-28T16:08:41;22.10;77.50
480;DHT22;226;48.606;9.096;2023-07-28T16:11:09;22.00;73.00
480;DHT22;226;48.606;9.096;2023-07-28T16:13:37;22.20;75.10
480;DHT22;226;48.606;9.096;2023-07-28T16:16:05;22.00;81.20
480;DHT22;226;48.606;9.096;2023-07-28T16:18:35;22.00;78.50
480;DHT22;226;48.606;9.096;2023-07-28T16:21:03;21.90;82.40
480;DHT22;226;48.606;9.096;2023-07-28T16:23:31;21.90;83.10
480;DHT22;226;48.606;9.096;2023-07-28T16:25:59;21.60;82.90
480;DHT22;226;48.606;9.096;2023-07-28T16:28:27;21.80;85.70
480;DHT22;226;48.606;9.096;2023-07-28T16:30:56;21.70;86.90
480;DHT22;226;48.606;9.096;2023-07-28T16:33:24;21.60;86.30
480;DHT22;226;48.606;9.096;2023-07-28T16:35:53;21.70;89.30
480;DHT22;226;48.606;9.096;2023-07-28T16:38:21;21.60;90.10
480;DHT22;226;48.606;9.096;2023-07-28T16:40:49;21.60;82.90
480;DHT22;226;48.606;9.096;2023-07-28T16:43:18;21.60;84.00
480;DHT22;226;48.606;9.096;2023-07-28T16:45:48;21.70;84.20
480;DHT22;226;48.606;9.096;2023-07-28T16:48:16;21.70;85.90
480;DHT22;226;48.606;9.096;2023-07-28T16:50:44;22.00;85.60
480;DHT22;226;48.606;9.096;2023-07-28T16:53:13;21.90;90.20
480;DHT22;226;48.606;9.096;2023-07-28T16:55:42;21.90;91.40
480;DHT22;226;48.606;9.096;2023-07-28T16:58:10;21.90;91.30
480;DHT22;226;48.606;9.096;2023-07-28T17:00:38;21.70;90.60
480;DHT22;226;48.606;9.096;2023-07-28T17:03:06;21.70;90.70
480;DHT22;226;48.606;9.096;2023-07-28T17:05:34;21.70;90.20
480;DHT22;226;48.606;9.096;2023-07-28T17:08:03;21.80;90.00
480;DHT22;226;48.606;9.096;2023-07-28T17:10:32;21.90;90.10
480;DHT22;226;48.606;9.096;2023-07-28T17:13:01;21.80;89.20
480;DHT22;226;48.606;9.096;2023-07-28T17:15:29;21.70;90.60
480;DHT22;226;48.606;9.096;2023-07-28T17:18:07;21.70;92.40
480;DHT22;226;48.606;9.096;2023-07-28T17:20:35;21.70;92.70
480;DHT22;226;48.606;9.096;2023-07-28T17:23:04;21.80;93.20
480;DHT22;226;48.606;9.096;2023-07-28T17:25:33;21.70;92.70
480;DHT22;226;48.606;9.096;2023-07-28T17:30:30;21.30;91.70
480;DHT22;226;48.606;9.096;2023-07-28T17:32:58;21.60;95.20
480;DHT22;226;48.606;9.096;2023-07-28T17:35:26;21.60;93.40
480;DHT22;226;48.606;9.096;2023-07-28T17:37:55;21.50;95.10
480;DHT22;226;48.606;9.096;2023-07-28T17:40:23;21.30;94.00
480;DHT22;226;48.606;9.096;2023-07-28T17:42:53;21.50;93.50
480;DHT22;226;48.606;9.096;2023-07-28T17:45:21;21.30;93.90
480;DHT22;226;48.606;9.096;2023-07-28T17:47:49;21.30;94.00
480;DHT22;226;48.606;9.096;2023-07-28T17:50:17;21.20;93.80
480;DHT22;226;48.606;9.096;2023-07-28T17:52:46;21.20;94.70
480;DHT22;226;48.606;9.096;2023-07-28T17:55:16;21.10;94.40
480;DHT22;226;48.606;9.096;2023-07-28T17:57:44;21.50;94.10
480;DHT22;226;48.606;9.096;2023-07-28T18:00:14;21.10;95.30
480;DHT22;226;48.606;9.096;2023-07-28T18:02:45;21.10;94.90
480;DHT22;226;48.606;9.096;2023-07-28T18:05:14;21.20;95.00
480;DHT22;226;48.606;9.096;2023-07-28T18:07:42;21.20;95.10
480;DHT22;226;48.606;9.096;2023-07-28T18:10:11;21.10;96.40
480;DHT22;226;48.606;9.096;2023-07-28T18:12:39;21.10;97.00
480;DHT22;226;48.606;9.096;2023-07-28T18:15:08;21.10;98.20
480;DHT22;226;48.606;9.096;2023-07-28T18:17:38;21.20;95.70
480;DHT22;226;48.606;9.096;2023-07-28T18:20:07;21.10;96.60
480;DHT22;226;48.606;9.096;2023-07-28T18:22:35;21.00;95.50
480;DHT22;226;48.606;9.096;2023-07-28T18:25:04;21.00;96.60
480;DHT22;226;48.606;9.096;2023-07-28T18:27:33;20.80;96.60
480;DHT22;226;48.606;9.096;2023-07-28T18:30:01;20.60;97.50
480;DHT22;226;48.606;9.096;2023-07-28T18:32:31;20.80;97.60
480;DHT22;226;48.606;9.096;2023-07-28T18:35:01;20.70;97.50
480;DHT22;226;48.606;9.096;2023-07-28T18:37:29;20.70;98.20
480;DHT22;226;48.606;9.096;2023-07-28T18:39:57;20.80;97.90
480;DHT22;226;48.606;9.096;2023-07-28T18:42:25;20.80;98.00
480;DHT22;226;48.606;9.096;2023-07-28T18:44:53;20.70;97.30
480;DHT22;226;48.606;9.096;2023-07-28T18:47:22;20.60;97.30
480;DHT22;226;48.606;9.096;2023-07-28T18:49:50;20.50;97.50
480;DHT22;226;48.606;9.096;2023-07-28T18:52:20;20.80;97.50
480;DHT22;226;48.606;9.096;2023-07-28T18:54:48;20.30;97.90
480;DHT22;226;48.606;9.096;2023-07-28T18:57:17;20.30;97.90
480;DHT22;226;48.606;9.096;2023-07-28T18:59:45;20.30;98.00
480;DHT22;226;48.606;9.096;2023-07-28T19:02:13;20.40;97.90
480;DHT22;226;48.606;9.096;2023-07-28T19:04:41;20.20;97.60
480;DHT22;226;48.606;9.096;2023-07-28T19:07:12;20.00;97.60
480;DHT22;226;48.606;9.096;2023-07-28T19:09:41;19.70;97.80
480;DHT22;226;48.606;9.096;2023-07-28T19:12:10;19.90;98.20
480;DHT22;226;48.606;9.096;2023-07-28T19:14:38;19.60;97.70
480;DHT22;226;48.606;9.096;2023-07-28T19:17:09;19.50;98.10
480;DHT22;226;48.606;9.096;2023-07-28T19:19:37;19.60;98.70
480;DHT22;226;48.606;9.096;2023-07-28T19:22:05;19.40;99.20
480;DHT22;226;48.606;9.096;2023-07-28T19:24:35;19.40;99.20
480;DHT22;226;48.606;9.096;2023-07-28T19:27:05;19.30;99.70
480;DHT22;226;48.606;9.096;2023-07-28T19:29:33;19.30;99.90
480;DHT22;226;48.606;9.096;2023-07-28T19:32:02;19.40;99.90
480;DHT22;226;48.606;9.096;2023-07-28T19:34:30;19.20;99.90
480;DHT22;226;48.606;9.096;2023-07-28T19:36:59;19.20;99.90
480;DHT22;226;48.606;9.096;2023-07-28T19:39:27;19.20;99.90
480;DHT22;226;48.606;9.096;2023-07-28T19:41:55;19.20;99.90
480;DHT22;226;48.606;9.096;2023-07-28T19:44:25;19.00;99.90
480;DHT22;226;48.606;9.096;2023-07-28T19:47:07;19.20;99.90
480;DHT22;226;48.606;9.096;2023-07-28T19:49:35;19.10;99.90
480;DHT22;226;48.606;9.096;2023-07-28T19:52:04;19.10;99.90
480;DHT22;226;48.606;9.096;2023-07-28T19:54:33;19.10;99.90
480;DHT22;226;48.606;9.096;2023-07-28T19:57:01;19.00;99.90
480;DHT22;226;48.606;9.096;2023-07-28T19:59:31;18.90;99.90
480;DHT22;226;48.606;9.096;2023-07-28T20:01:59;18.70;99.90
480;DHT22;226;48.606;9.096;2023-07-28T20:04:27;18.60;99.90
480;DHT22;226;48.606;9.096;2023-07-28T20:06:55;18.60;99.90
480;DHT22;226;48.606;9.096;2023-07-28T20:09:23;18.70;99.90
480;DHT22;226;48.606;9.096;2023-07-28T20:11:53;18.50;99.90
480;DHT22;226;48.606;9.096;2023-07-28T20:14:21;18.80;99.90
480;DHT22;226;48.606;9.096;2023-07-28T20:16:51;18.50;99.90
480;DHT22;226;48.606;9.096;2023-07-28T20:19:19;18.50;99.90
480;DHT22;226;48.606;9.096;2023-07-28T20:21:47;18.50;99.90
480;DHT22;226;48.606;9.096;2023-07-28T20:24:15;18.00;99.90
480;DHT22;226;48.606;9.096;2023-07-28T20:26:43;18.50;99.90
480;DHT22;226;48.606;9.096;2023-07-28T20:29:12;18.60;99.90
480;DHT22;226;48.606;9.096;2023-07-28T20:34:09;18.60;99.90
480;DHT22;226;48.606;9.096;2023-07-28T20:36:38;18.40;99.90
480;DHT22;226;48.606;9.096;2023-07-28T20:39:06;18.70;99.90
480;DHT22;226;48.606;9.096;2023-07-28T20:41:34;18.60;99.90
480;DHT22;226;48.606;9.096;2023-07-28T20:44:02;18.50;99.90
480;DHT22;226;48.606;9.096;2023-07-28T20:46:31;18.50;99.90
480;DHT22;226;48.606;9.096;2023-07-28T20:49:00;18.30;99.90
480;DHT22;226;48.606;9.096;2023-07-28T20:51:29;18.70;99.90
480;DHT22;226;48.606;9.096;2023-07-28T20:54:00;18.70;99.90
480;DHT22;226;48.606;9.096;2023-07-28T20:56:28;18.50;99.90
480;DHT22;226;48.606;9.096;2023-07-28T20:58:56;18.70;99.90
480;DHT22;226;48.606;9.096;2023-07-28T21:01:24;18.80;99.90
480;DHT22;226;48.606;9.096;2023-07-28T21:03:52;18.70;99.90
480;DHT22;226;48.606;9.096;2023-07-28T21:06:20;18.70;99.90
480;DHT22;226;48.606;9.096;2023-07-28T21:08:50;18.60;99.90
480;DHT22;226;48.606;9.096;2023-07-28T21:11:18;18.80;99.90
480;DHT22;226;48.606;9.096;2023-07-28T21:13:46;18.40;99.90
480;DHT22;226;48.606;9.096;2023-07-28T21:16:14;18.30;99.90
480;DHT22;226;48.606;9.096;2023-07-28T21:18:43;18.30;99.90
480;DHT22;226;48.606;9.096;2023-07-28T21:21:11;18.30;99.90
480;DHT22;226;48.606;9.096;2023-07-28T21:23:39;18.10;99.90
480;DHT22;226;48.606;9.096;2023-07-28T21:26:08;18.30;99.90
480;DHT22;226;48.606;9.096;2023-07-28T21:28:38;18.20;99.90
480;DHT22;226;48.606;9.096;2023-07-28T21:31:06;18.10;99.90
480;DHT22;226;48.606;9.096;2023-07-28T21:33:35;18.20;99.90
480;DHT22;226;48.606;9.096;2023-07-28T21:36:03;17.90;99.90
480;DHT22;226;48.606;9.096;2023-07-28T21:38:32;18.10;99.90
480;DHT22;226;48.606;9.096;2023-07-28T21:41:00;18.20;99.90
480;DHT22;226;48.606;9.096;2023-07-28T21:43:30;18.10;99.90
480;DHT22;226;48.606;9.096;2023-07-28T21:45:59;18.10;99.90
480;DHT22;226;48.606;9.096;2023-07-28T21:48:27;18.10;99.90
480;DHT22;226;48.606;9.096;2023-07-28T21:50:55;17.90;99.90
480;DHT22;226;48.606;9.096;2023-07-28T21:53:23;17.90;99.90
480;DHT22;226;48.606;9.096;2023-07-28T21:55:51;17.80;99.90
480;DHT22;226;48.606;9.096;2023-07-28T21:58:21;17.80;99.90
480;DHT22;226;48.606;9.096;2023-07-28T22:00:51;17.90;99.90
480;DHT22;226;48.606;9.096;2023-07-28T22:03:19;17.80;99.90
480;DHT22;226;48.606;9.096;2023-07-28T22:05:47;17.60;99.90
480;DHT22;226;48.606;9.096;2023-07-28T22:08:15;17.60;99.90
480;DHT22;226;48.606;9.096;2023-07-28T22:10:44;17.70;99.90
480;DHT22;226;48.606;9.096;2023-07-28T22:13:12;17.60;99.90
480;DHT22;226;48.606;9.096;2023-07-28T22:15:40;17.70;99.90
480;DHT22;226;48.606;9.096;2023-07-28T22:18:10;17.80;99.90
480;DHT22;226;48.606;9.096;2023-07-28T22:20:40;17.80;99.90
480;DHT22;226;48.606;9.096;2023-07-28T22:23:08;17.60;99.90
480;DHT22;226;48.606;9.096;2023-07-28T22:25:41;17.80;99.90
480;DHT22;226;48.606;9.096;2023-07-28T22:28:09;17.50;99.90
480;DHT22;226;48.606;9.096;2023-07-28T22:30:38;17.50;99.90
480;DHT22;226;48.606;9.096;2023-07-28T22:33:07;17.50;99.90
480;DHT22;226;48.606;9.096;2023-07-28T22:35:37;17.60;99.90
480;DHT22;226;48.606;9.096;2023-07-28T22:38:05;17.70;99.90
480;DHT22;226;48.606;9.096;2023-07-28T22:40:33;17.70;99.90
480;DHT22;226;48.606;9.096;2023-07-28T22:43:01;17.40;99.90
480;DHT22;226;48.606;9.096;2023-07-28T22:45:29;17.40;99.90
480;DHT22;226;48.606;9.096;2023-07-28T22:47:58;17.40;99.90
480;DHT22;226;48.606;9.096;2023-07-28T22:50:26;17.50;99.90
480;DHT22;226;48.606;9.096;2023-07-28T22:52:56;17.40;99.90
480;DHT22;226;48.606;9.096;2023-07-28T22:55:24;17.50;99.90
480;DHT22;226;48.606;9.096;2023-07-28T22:57:52;17.60;99.90
480;DHT22;226;48.606;9.096;2023-07-28T23:00:20;17.50;99.90
480;DHT22;226;48.606;9.096;2023-07-28T23:02:50;17.50;99.90
480;DHT22;226;48.606;9.096;2023-07-28T23:05:19;17.70;99.90
480;DHT22;226;48.606;9.096;2023-07-28T23:07:47;17.50;99.90
480;DHT22;226;48.606;9.096;2023-07-28T23:10:16;17.80;99.90
480;DHT22;226;48.606;9.096;2023-07-28T23:12:45;17.70;99.90
480;DHT22;226;48.606;9.096;2023-07-28T23:15:13;17.70;99.90
480;DHT22;226;48.606;9.096;2023-07-28T23:17:42;17.60;99.90
480;DHT22;226;48.606;9.096;2023-07-28T23:20:11;17.70;99.90
480;DHT22;226;48.606;9.096;2023-07-28T23:22:39;18.30;99.90
480;DHT22;226;48.606;9.096;2023-07-28T23:25:08;17.60;99.90
480;DHT22;226;48.606;9.096;2023-07-28T23:27:37;17.40;99.90
480;DHT22;226;48.606;9.096;2023-07-28T23:30:06;17.40;99.90
480;DHT22;226;48.606;9.096;2023-07-28T23:32:35;17.40;99.90
480;DHT22;226;48.606;9.096;2023-07-28T23:35:03;17.60;99.90
480;DHT22;226;48.606;9.096;2023-07-28T23:37:32;17.50;99.90
480;DHT22;226;48.606;9.096;2023-07-28T23:40:00;17.40;99.90
480;DHT22;226;48.606;9.096;2023-07-28T23:42:29;17.30;99.90
480;DHT22;226;48.606;9.096;2023-07-28T23:44:58;17.40;99.90
480;DHT22;226;48.606;9.096;2023-07-28T23:47:26;17.40;99.90
480;DHT22;226;48.606;9.096;2023-07-28T23:49:54;17.60;99.90
480;DHT22;226;48.606;9.096;2023-07-28T23:52:22;17.60;99.90
480;DHT22;226;48.606;9.096;2023-07-28T23:54:51;17.10;99.90
480;DHT22;226;48.606;9.096;2023-07-28T23:57:19;17.40;99.90
480;DHT22;226;48.606;9.096;2023-07-28T23:59:47;17.50;99.90
